M I D A S
Marine Information and Data Acquisition System
Tripno 183 of the Zeeleeuw from 2001-12-04 09:15:00 to 2001-12-04 16:20:00
Back to CruiseResearch ActivitiesStationsMapUnderway DataData graphs

EquipmentUnitsComment
TimeDGPSUTC
LatitudeDGPSDM.mWGS84
LongitudeDGPSDM.mWGS84
TemperatureSBE03/SBE38deg celciusITS90
ConductivitySBE21S/mITS90
SalinitySBE21 Practical Salinity Units
ChlorophylAChelsea fluorimeterg/lCalibrated in Aceton
Missing or incorrect values are displayed as -999
Sea surface data collected by the RV Zeeleeuw from 2001-12-04 09:15:00 to 2001-12-04 16:20:00
Time Latitude Longitude Temperature Conductivity Salinity ChlorophylA
2001-12-04 09:16:01 51°13.426 2°50.822 17.828245 0.002641 0.019884  
2001-12-04 09:17:02 51°13.436 2°50.79 17.969195 0.002641 0.019883  
2001-12-04 09:18:01 51°13.415 2°50.691 18.046721 0.002641 0.019881  
2001-12-04 09:19:02 51°13.304 2°50.501 17.954446 0.002641 0.019882  
2001-12-04 09:20:01 51°13.192 2°50.199 17.959321 0.002641 0.019878  
2001-12-04 09:21:02 51°13.063 2°49.88 17.953613 0.002641 0.019875  
2001-12-04 09:22:02 51°12.937 2°49.561 18.289187 0.002641 0.019873  
2001-12-04 09:23:02 51°12.81 2°49.242 18.189428 0.002641 0.01987  
2001-12-04 09:24:02 51°12.681 2°48.921 18.22094 0.002641 0.019867  
2001-12-04 09:25:02 51°12.553 2°48.598 18.081333 0.002641 0.019864  
2001-12-04 09:26:01 51°12.427 2°48.279 18.317586 0.002641 0.01986  
2001-12-04 09:27:01 51°12.298 2°47.956 18.109277 0.002641 0.019857  
2001-12-04 09:28:02 51°12.168 2°47.627 18.121956 0.002641 0.019854  
2001-12-04 09:29:01 51°12.042 2°47.309 18.265215 0.002641 0.019852  
2001-12-04 09:30:02 51°11.921 2°46.971 17.960071 0.002641 0.019849  
2001-12-04 09:31:02 51°11.802 2°46.639 18.015255 0.002641 0.019847  
2001-12-04 09:32:02 51°11.685 2°46.305 18.037648 0.002641 0.019845  
2001-12-04 09:33:02 51°11.57 2°45.972 18.081208 0.002641 0.019843  
2001-12-04 09:34:02 51°11.457 2°45.639 18.137833 0.002641 0.019841  
2001-12-04 09:35:02 51°11.35 2°45.302 18.136545 0.002641 0.019838  
2001-12-04 09:36:02 51°11.243 2°44.964 18.232312 0.002641 0.019837  
2001-12-04 09:37:01 51°11.136 2°44.634 18.195533 0.002641 0.019835  
2001-12-04 09:38:01 51°11.028 2°44.298 18.260486 0.002641 0.019833  
2001-12-04 09:39:02 51°10.927 2°43.952 18.230735 0.002641 0.019831  
2001-12-04 09:40:02 51°10.835 2°43.605 18.293872 0.002641 0.01983  
2001-12-04 09:41:01 51°10.743 2°43.266 18.299926 0.002542 0.019371  
2001-12-04 09:42:02 51°10.655 2°42.913 18.339841 0.002641 0.019828  
2001-12-04 09:43:02 51°10.569 2°42.565 18.44708 0.002542 0.019369  
2001-12-04 09:44:02 51°10.491 2°42.212 18.434584 0.002542 0.019367  
2001-12-04 09:45:02 51°10.414 2°41.86 18.42279 0.002542 0.019365  
2001-12-04 09:46:02 51°10.335 2°41.508 18.529198 0.002542 0.019363  
2001-12-04 09:47:02 51°10.243 2°41.163 18.490342 0.002542 0.01936  
2001-12-04 09:48:01 51°10.131 2°40.844 18.531967 0.002542 0.019356  
2001-12-04 09:49:02 51°9.999 2°40.537 18.565058 0.002542 0.019355  
2001-12-04 09:50:02 51°9.91 2°40.204 18.61254 0.002542 0.019351  
2001-12-04 09:51:02 51°9.849 2°39.85 18.615058 0.002542 0.01935  
2001-12-04 09:52:01 51°9.781 2°39.502 18.64679 0.002542 0.019348  
2001-12-04 09:53:02 51°9.717 2°39.138 18.728755 0.002542 0.019347  
2001-12-04 09:54:02 51°9.655 2°38.778 18.687455 0.002542 0.019345  
2001-12-04 09:55:02 51°9.593 2°38.418 18.760559 0.002542 0.019342  
2001-12-04 09:56:01 51°9.531 2°38.063 18.717464 0.002542 0.01934  
2001-12-04 09:57:02 51°9.47 2°37.695 18.788725 0.002542 0.019339  
2001-12-04 09:58:01 51°9.409 2°37.339 18.823917 0.002542 0.019337  
2001-12-04 09:59:02 51°9.352 2°36.967 18.838482 0.002542 0.019335  
2001-12-04 10:00:01 51°9.295 2°36.605 18.853127 0.002542 0.019333  
2001-12-04 10:01:02 51°9.243 2°36.228 18.937685 0.002542 0.019331  
2001-12-04 10:02:02 51°9.192 2°35.856 19.041465 0.002542 0.019329  
2001-12-04 10:03:01 51°9.142 2°35.491 18.952309 0.002542 0.019327  
2001-12-04 10:04:02 51°9.09 2°35.115 18.966026 0.002542 0.019325  
2001-12-04 10:05:02 51°9.039 2°34.746 19.003469 0.002542 0.019324  
2001-12-04 10:06:02 51°8.989 2°34.377 19.070994 0.002542 0.019323  
2001-12-04 10:07:02 51°8.937 2°34.008 19.075381 0.002542 0.019321  
2001-12-04 10:08:02 51°8.884 2°33.641 19.082105 0.002542 0.019319  
2001-12-04 10:09:02 51°8.839 2°33.356 19.163029 0.002542 0.019316  
2001-12-04 10:10:02 51°8.82 2°33.282 19.179448 0.002542 0.019311  
2001-12-04 10:11:02 51°8.804 2°33.296 19.204131 0.002542 0.019308  
2001-12-04 10:12:02 51°8.805 2°33.267 19.287693 0.002542 0.019306  
2001-12-04 10:13:01 51°8.805 2°33.253 19.323656 0.002542 0.019305  
2001-12-04 10:14:02 51°8.802 2°33.251 19.357028 0.002542 0.019305  
2001-12-04 10:15:02 51°8.794 2°33.25 19.377239 0.002542 0.019304  
2001-12-04 10:16:02 51°8.787 2°33.251 19.412095 0.002542 0.019304  
2001-12-04 10:17:01 51°8.781 2°33.251 19.434045 0.002542 0.019304  
2001-12-04 10:18:02 51°8.775 2°33.249 19.456191 0.002542 0.019304  
2001-12-04 10:19:02 51°8.77 2°33.246 19.479391 0.002542 0.019304  
2001-12-04 10:20:01 51°8.764 2°33.243 19.481348 0.002542 0.019303  
2001-12-04 10:21:02 51°8.758 2°33.243 19.571583 0.002542 0.019303  
2001-12-04 10:22:01 51°8.752 2°33.243 19.53257 0.002444 0.018833  
2001-12-04 10:23:02 51°8.744 2°33.245 19.548862 0.002542 0.019302  
2001-12-04 10:24:01 51°8.736 2°33.249 19.605895 0.002542 0.019302  
2001-12-04 10:25:02 51°8.732 2°33.251 19.593401 0.002444 0.018831  
2001-12-04 10:26:02 51°8.771 2°33.21 19.65174 0.002444 0.018831  
2001-12-04 10:27:02 51°8.817 2°33.132 19.631363 0.002444 0.01883  
2001-12-04 10:28:02 51°8.855 2°33.054 19.650804 0.002444 0.01883  
2001-12-04 10:29:01 51°8.886 2°32.987 19.663532 0.002444 0.01883  
2001-12-04 10:30:03 51°8.884 2°32.982 19.695848 0.002542 0.0193  
2001-12-04 10:31:02 51°8.876 2°32.987 19.712224 0.002444 0.018829  
2001-12-04 10:32:02 51°8.869 2°32.991 19.763603 0.002444 0.018829  
2001-12-04 10:33:02 51°8.865 2°32.996 19.75333 0.002444 0.018828  
2001-12-04 10:34:02 51°8.862 2°32.998 19.836322 0.002444 0.018827  
2001-12-04 10:35:02 51°8.859 2°33.002 19.786498 0.002444 0.018826  
2001-12-04 10:36:02 51°8.857 2°33.005 19.794899 0.002444 0.018825  
2001-12-04 10:37:01 51°8.855 2°33.009 19.840905 0.002444 0.018825  
2001-12-04 10:38:02 51°8.852 2°33.013 19.84569 0.002444 0.018824  
2001-12-04 10:39:02 51°8.847 2°33.018 19.860004 0.002444 0.018823  
2001-12-04 10:40:02 51°8.843 2°33.024 19.896404 0.002444 0.018822  
2001-12-04 10:41:02 51°8.841 2°33.028 19.893081 0.002444 0.018821  
2001-12-04 10:42:02 51°8.838 2°33.033 19.924603 0.002444 0.01882  
2001-12-04 10:43:02 51°8.834 2°33.038 19.972629 0.002444 0.018819  
2001-12-04 10:44:02 51°8.831 2°33.044 19.936511 0.002444 0.018818  
2001-12-04 10:45:02 51°8.828 2°33.048 19.962022 0.002444 0.018817  
2001-12-04 10:46:02 51°8.826 2°33.053 20.020905 0.002444 0.018816  
2001-12-04 10:47:02 51°8.823 2°33.056 20.094652 0.002444 0.018815  
2001-12-04 10:48:02 51°8.821 2°33.06 20.043676 0.002444 0.018814  
2001-12-04 10:49:02 51°8.816 2°33.065 20.061306 0.002444 0.018814  
2001-12-04 10:50:02 51°8.811 2°33.072 20.024465 0.002444 0.018813  
2001-12-04 10:51:02 51°8.807 2°33.079 20.054716 0.002444 0.018812  
2001-12-04 10:52:02 51°8.804 2°33.087 20.113157 0.002444 0.018811  
2001-12-04 10:53:02 51°8.802 2°33.095 20.160167 0.002444 0.01881  
2001-12-04 10:54:02 51°8.801 2°33.102 20.104673 0.002444 0.01881  
2001-12-04 10:55:02 51°8.799 2°33.108 20.120389 0.002444 0.018809  
2001-12-04 10:56:02 51°8.798 2°33.115 20.131819 0.002444 0.018808  
2001-12-04 10:57:02 51°8.797 2°33.122 20.155604 0.002444 0.018807  
2001-12-04 10:58:02 51°8.795 2°33.129 20.163679 0.002444 0.018806  
2001-12-04 10:59:01 51°8.792 2°33.138 20.174376 0.002444 0.018805  
2001-12-04 11:00:01 51°8.79 2°33.147 20.288072 0.002444 0.018804  
2001-12-04 11:01:01 51°8.788 2°33.156 20.205975 0.002444 0.018803  
2001-12-04 11:02:02 51°8.787 2°33.165 20.24139 0.002444 0.018802  
2001-12-04 11:03:02 51°8.785 2°33.171 20.251995 0.002444 0.018801  
2001-12-04 11:04:02 51°8.784 2°33.182 20.229129 0.002444 0.0188  
2001-12-04 11:05:02 51°8.783 2°33.192 20.241511 0.002444 0.0188  
2001-12-04 11:06:02 51°8.782 2°33.201 20.262598 0.002444 0.018799  
2001-12-04 11:07:02 51°8.778 2°33.214 20.275578 0.002444 0.018798  
2001-12-04 11:08:01 51°8.774 2°33.228 20.311965 0.002444 0.018797  
2001-12-04 11:09:02 51°8.771 2°33.241 20.297864 0.002444 0.018796  
2001-12-04 11:10:02 51°8.769 2°33.254 20.310877 0.002444 0.018795  
2001-12-04 11:11:02 51°8.768 2°33.267 20.315832 0.002444 0.018795  
2001-12-04 11:12:02 51°8.769 2°33.281 20.313697 0.002444 0.018794  
2001-12-04 11:13:02 51°8.772 2°33.294 20.441003 0.002444 0.018793  
2001-12-04 11:14:02 51°8.773 2°33.309 20.394341 0.002444 0.018792  
2001-12-04 11:15:02 51°8.774 2°33.325 20.358238 0.002444 0.018791  
2001-12-04 11:16:01 51°8.775 2°33.341 20.460503 0.002444 0.01879  
2001-12-04 11:17:02 51°8.777 2°33.357 20.412688 0.002444 0.018789  
2001-12-04 11:18:02 51°8.778 2°33.373 20.428737 0.002444 0.018788  
2001-12-04 11:19:01 51°8.778 2°33.39 20.428455 0.002444 0.018787  
2001-12-04 11:20:02 51°8.779 2°33.41 20.444582 0.002444 0.018786  
2001-12-04 11:21:01 51°8.781 2°33.428 20.411602 0.002444 0.018785  
2001-12-04 11:22:01 51°8.783 2°33.446 20.440922 0.002444 0.018784  
2001-12-04 11:23:02 51°8.786 2°33.465 20.43493 0.002444 0.018783  
2001-12-04 11:24:02 51°8.788 2°33.486 20.441244 0.002444 0.018782  
2001-12-04 11:25:02 51°8.79 2°33.506 20.498121 0.002444 0.018781  
2001-12-04 11:26:02 51°8.792 2°33.527 20.466412 0.002444 0.018781  
2001-12-04 11:27:02 51°8.794 2°33.55 20.513146 0.002444 0.01878  
2001-12-04 11:28:02 51°8.795 2°33.575 20.51636 0.002444 0.018779  
2001-12-04 11:29:02 51°8.796 2°33.598 20.529896 0.002444 0.018778  
2001-12-04 11:30:02 51°8.796 2°33.622 20.508406 0.002444 0.018777  
2001-12-04 11:31:02 51°8.797 2°33.646 20.540417 0.002444 0.018776  
2001-12-04 11:32:02 51°8.799 2°33.673 20.551098 0.002444 0.018775  
2001-12-04 11:33:02 51°8.802 2°33.698 20.603112 0.002444 0.018774  
2001-12-04 11:34:02 51°8.806 2°33.723 20.58016 0.002444 0.018773  
2001-12-04 11:35:02 51°8.81 2°33.747 20.594646 0.002444 0.018772  
2001-12-04 11:36:02 51°8.814 2°33.774 20.594646 0.002444 0.018771  
2001-12-04 11:37:02 51°8.818 2°33.801 20.60243 0.002444 0.01877  
2001-12-04 11:38:02 51°8.819 2°33.831 20.57711 0.002444 0.01877  
2001-12-04 11:39:01 51°8.821 2°33.861 20.591637 0.002444 0.018769  
2001-12-04 11:40:02 51°8.824 2°33.892 20.662024 0.002444 0.018768  
2001-12-04 11:41:01 51°8.829 2°33.922 20.615147 0.002444 0.018767  
2001-12-04 11:42:02 51°8.834 2°33.954 20.604958 0.002444 0.018766  
2001-12-04 11:43:02 51°8.839 2°33.985 20.629185 0.002444 0.018765  
2001-12-04 11:44:02 51°8.845 2°34.016 20.663306 0.002444 0.018765  
2001-12-04 11:45:01 51°8.852 2°34.047 20.671403 0.002444 0.018764  
2001-12-04 11:46:02 51°8.859 2°34.077 20.649155 0.002444 0.018763  
2001-12-04 11:47:02 51°8.866 2°34.109 20.685711 0.002444 0.018762  
2001-12-04 11:48:02 51°8.873 2°34.142 20.717081 0.002444 0.018761  
2001-12-04 11:49:02 51°8.88 2°34.176 20.701538 0.002444 0.018761  
2001-12-04 11:50:02 51°8.886 2°34.212 20.675812 0.002444 0.01876  
2001-12-04 11:51:01 51°8.893 2°34.247 20.682385 0.002444 0.018759  
2001-12-04 11:52:02 51°8.901 2°34.284 20.68002 0.002444 0.018759  
2001-12-04 11:53:02 51°8.91 2°34.319 20.708028 0.002444 0.018758  
2001-12-04 11:54:02 51°8.93 2°34.348 20.742351 0.002444 0.018757  
2001-12-04 11:55:01 51°8.969 2°34.339 20.757005 0.002444 0.018756  
2001-12-04 11:56:02 51°8.968 2°34.236 20.738467 0.002444 0.018756  
2001-12-04 11:57:02 51°8.895 2°34.13 20.652643 0.002444 0.018756  
2001-12-04 11:58:02 51°8.824 2°33.995 20.650758 0.002444 0.018753  
2001-12-04 11:59:02 51°8.753 2°33.856 20.734743 0.002444 0.018751  
2001-12-04 12:00:02 51°8.685 2°33.716 20.689758 0.002444 0.018748  
2001-12-04 12:01:02 51°8.609 2°33.581 20.682585 0.002444 0.018745  
2001-12-04 12:02:02 51°8.535 2°33.443 20.703461 0.002444 0.018742  
2001-12-04 12:03:02 51°8.47 2°33.306 20.693404 0.002444 0.018739  
2001-12-04 12:04:02 51°8.406 2°33.16 20.743913 0.002444 0.018737  
2001-12-04 12:05:02 51°8.343 2°33.016 20.735944 0.002444 0.018734  
2001-12-04 12:06:02 51°8.272 2°32.877 20.760207 0.002444 0.018732  
2001-12-04 12:07:02 51°8.199 2°32.74 20.723369 0.002444 0.01873  
2001-12-04 12:08:02 51°8.142 2°32.588 20.812668 0.002444 0.018728  
2001-12-04 12:09:02 51°8.077 2°32.441 20.819828 0.002444 0.018725  
2001-12-04 12:10:02 51°8.01 2°32.296 20.799987 0.002444 0.018723  
2001-12-04 12:11:02 51°7.933 2°32.166 20.760367 0.002444 0.018721  
2001-12-04 12:12:02 51°7.874 2°32.017 20.812428 0.002444 0.018719  
2001-12-04 12:13:02 51°7.803 2°31.877 20.760327 0.002444 0.018717  
2001-12-04 12:14:02 51°7.722 2°31.694 20.862492 0.002444 0.018716  
2001-12-04 12:15:02 51°7.636 2°31.501 20.871206 0.002444 0.018714  
2001-12-04 12:16:02 51°7.522 2°31.35 20.805708 0.002444 0.018712  
2001-12-04 12:17:02 51°7.413 2°31.186 20.850019 0.002444 0.018711  
2001-12-04 12:18:02 51°7.311 2°31.009 20.798986 0.002444 0.018709  
2001-12-04 12:19:02 51°7.191 2°30.869 20.812028 0.002444 0.018706  
2001-12-04 12:20:02 51°7.061 2°30.745 20.802827 0.002444 0.018705  
2001-12-04 12:21:02 51°6.932 2°30.621 20.883555 0.002444 0.018701  
2001-12-04 12:22:02 51°6.805 2°30.485 20.830546 0.002444 0.018699  
2001-12-04 12:23:02 51°6.683 2°30.341 20.912041 0.002444 0.018696  
2001-12-04 12:24:02 51°6.559 2°30.197 20.879838 0.002444 0.018694  
2001-12-04 12:25:02 51°6.423 2°30.084 20.93277 0.002444 0.018691  
2001-12-04 12:26:02 51°6.26 2°30.119 20.87768 0.002444 0.018689  
2001-12-04 12:27:02 51°6.092 2°30.199 20.866729 0.002444 0.018687  
2001-12-04 12:28:02 51°5.963 2°30.369 20.963711 0.002444 0.018687  
2001-12-04 12:29:02 51°6.009 2°30.671 20.925981 0.002444 0.018685  
2001-12-04 12:30:02 51°6.121 2°30.982 20.939518 0.002444 0.018684  
2001-12-04 12:31:02 51°6.242 2°31.315 20.874962 0.002444 0.018685  
2001-12-04 12:32:02 51°6.372 2°31.658 20.969978 0.002444 0.018685  
2001-12-04 12:33:02 51°6.47 2°32.03 20.853458 0.002444 0.018686  
2001-12-04 12:34:02 51°6.592 2°32.379 20.884953 0.002444 0.018687  
2001-12-04 12:35:02 51°6.713 2°32.709 20.853418 0.002444 0.018688  
2001-12-04 12:36:01 51°6.741 2°32.866 20.945667 0.002444 0.018689  
2001-12-04 12:37:03 51°6.744 2°32.912 21.008762 0.002444 0.01869  
2001-12-04 12:38:01 51°6.795 2°32.951 20.978 0.002444 0.018691  
2001-12-04 12:39:02 51°6.815 2°33.002 20.999227 0.002444 0.018691  
2001-12-04 12:40:02 51°6.839 2°32.959 20.997671 0.002444 0.018691  
2001-12-04 12:41:02 51°6.825 2°32.976 21.029741 0.002444 0.018691  
2001-12-04 12:42:02 51°6.816 2°33.014 21.032134 0.002444 0.01869  
2001-12-04 12:43:02 51°6.807 2°33.04 21.081126 0.002444 0.01869  
2001-12-04 12:44:02 51°6.796 2°33.056 21.082162 0.002444 0.018688  
2001-12-04 12:45:02 51°6.782 2°33.067 21.060561 0.002444 0.018687  
2001-12-04 12:46:02 51°6.766 2°33.075 21.138447 0.002444 0.018685  
2001-12-04 12:47:02 51°6.748 2°33.078 21.068054 0.002444 0.018683  
2001-12-04 12:48:02 51°6.745 2°32.955 21.071123 0.002444 0.018681  
2001-12-04 12:49:02 51°6.737 2°32.773 21.055538 0.002345 0.018184  
2001-12-04 12:50:02 51°6.708 2°32.65 21.091327 0.002444 0.018678  
2001-12-04 12:51:02 51°6.71 2°32.655 21.096268 0.002444 0.018678  
2001-12-04 12:52:02 51°6.71 2°32.677 21.112083 0.002345 0.01818  
2001-12-04 12:53:02 51°6.711 2°32.703 21.118257 0.002444 0.018676  
2001-12-04 12:54:02 51°6.71 2°32.715 21.103279 0.002444 0.018675  
2001-12-04 12:55:02 51°6.709 2°32.722 21.147127 0.002444 0.018674  
2001-12-04 12:56:02 51°6.705 2°32.735 21.123514 0.002444 0.018673  
2001-12-04 12:57:02 51°6.697 2°32.742 21.195721 0.002345 0.018173  
2001-12-04 12:58:02 51°6.695 2°32.742 21.135222 0.002345 0.018172  
2001-12-04 12:59:02 51°6.7 2°32.745 21.181517 0.002345 0.01817  
2001-12-04 13:00:02 51°6.7 2°32.76 21.15485 0.002444 0.018668  
2001-12-04 13:01:02 51°6.691 2°32.778 21.219469 0.002444 0.018667  
2001-12-04 13:02:02 51°6.69 2°32.789 21.163966 0.002345 0.018167  
2001-12-04 13:03:02 51°6.688 2°32.8 21.20332 0.002444 0.018666  
2001-12-04 13:04:02 51°6.677 2°32.812 21.177219 0.002444 0.018665  
2001-12-04 13:05:02 51°6.664 2°32.818 21.250803 0.002444 0.018663  
2001-12-04 13:06:02 51°6.657 2°32.832 21.222134 0.002444 0.018662  
2001-12-04 13:07:02 51°6.654 2°32.857 21.199421 0.002345 0.018161  
2001-12-04 13:08:02 51°6.649 2°32.884 21.209844 0.002345 0.018159  
2001-12-04 13:09:02 51°6.617 2°32.782 21.277434 0.002345 0.018157  
2001-12-04 13:10:02 51°6.539 2°32.529 20.995796 0.002345 0.018156  
2001-12-04 13:11:02 51°6.507 2°32.235 21.18848 0.002345 0.018155  
2001-12-04 13:12:02 51°6.464 2°31.943 21.225117 0.002345 0.018153  
2001-12-04 13:13:02 51°6.402 2°31.658 21.188639 0.002345 0.018152  
2001-12-04 13:14:02 51°6.376 2°31.358 21.27958 0.002345 0.018151  
2001-12-04 13:15:02 51°6.361 2°31.052 21.240267 0.002345 0.018149  
2001-12-04 13:16:02 51°6.417 2°30.792 21.277116 0.002345 0.018147  
2001-12-04 13:17:02 51°6.511 2°30.679 21.277354 0.002345 0.018147  
2001-12-04 13:18:02 51°6.572 2°30.598 21.24973 0.002345 0.018146  
2001-12-04 13:19:02 51°6.644 2°30.547 21.272069 0.002345 0.018147  
2001-12-04 13:20:02 51°6.745 2°30.497 21.350795 0.002345 0.018147  
2001-12-04 13:21:02 51°6.916 2°30.654 21.207616 0.002345 0.018149  
2001-12-04 13:22:02 51°7.062 2°30.969 21.259747 0.002345 0.01815  
2001-12-04 13:23:02 51°7.193 2°31.299 21.234701 0.002345 0.01815  
2001-12-04 13:24:02 51°7.334 2°31.627 21.220066 0.002444 0.018652  
2001-12-04 13:25:02 51°7.454 2°31.975 21.237365 0.002345 0.01815  
2001-12-04 13:26:02 51°7.467 2°32.349 21.153178 0.002345 0.018152  
2001-12-04 13:27:02 51°7.437 2°32.654 21.113158 0.002345 0.018153  
2001-12-04 13:28:02 51°7.398 2°32.884 21.091765 0.002345 0.018153  
2001-12-04 13:29:02 51°7.353 2°33.053 21.089375 0.002345 0.018154  
2001-12-04 13:30:02 51°7.411 2°33.23 21.046129 0.002345 0.018155  
2001-12-04 13:31:02 51°7.504 2°33.146 21.114672 0.002444 0.018657  
2001-12-04 13:32:02 51°7.522 2°33.141 21.09053 0.002345 0.018156  
2001-12-04 13:33:02 51°7.525 2°33.164 21.068891 0.002345 0.018156  
2001-12-04 13:34:02 51°7.513 2°33.16 21.111087 0.002345 0.018155  
2001-12-04 13:35:02 51°7.515 2°33.162 21.071721 0.002345 0.018153  
2001-12-04 13:36:02 51°7.524 2°33.172 21.114433 0.002345 0.018152  
2001-12-04 13:37:02 51°7.534 2°33.18 21.107422 0.002345 0.01815  
2001-12-04 13:38:02 51°7.541 2°33.178 21.072558 0.002345 0.018149  
2001-12-04 13:39:02 51°7.541 2°33.177 21.073993 0.002345 0.018147  
2001-12-04 13:40:02 51°7.536 2°33.175 21.079612 0.002345 0.018146  
2001-12-04 13:41:02 51°7.528 2°33.17 21.091287 0.002345 0.018144  
2001-12-04 13:42:02 51°7.524 2°33.162 21.200336 0.002345 0.018143  
2001-12-04 13:43:02 51°7.544 2°33.071 21.119332 0.002345 0.018141  
2001-12-04 13:44:02 51°7.72 2°33.003 21.178572 0.002345 0.01814  
2001-12-04 13:45:02 51°7.911 2°33.23 21.113357 0.002345 0.01814  
2001-12-04 13:46:03 51°8.115 2°33.47 21.187406 0.002345 0.018139  
2001-12-04 13:47:02 51°8.305 2°33.727 21.123076 0.002345 0.018139  
2001-12-04 13:48:03 51°8.472 2°34.04 21.12881 0.002345 0.018139  
2001-12-04 13:49:02 51°8.606 2°34.383 21.097622 0.002345 0.018139  
2001-12-04 13:50:02 51°8.748 2°34.73 21.141035 0.002345 0.01814  
2001-12-04 13:51:02 51°8.871 2°35.095 21.126341 0.002345 0.01814  
2001-12-04 13:52:02 51°8.995 2°35.458 21.119252 0.002345 0.018141  
2001-12-04 13:53:02 51°9.118 2°35.819 21.223685 0.002444 0.018645  
2001-12-04 13:54:02 51°9.231 2°36.192 21.156084 0.002345 0.018142  
2001-12-04 13:55:02 51°9.349 2°36.563 21.124669 0.002345 0.018142  
2001-12-04 13:56:02 51°9.466 2°36.93 21.133151 0.002345 0.018143  
2001-12-04 13:57:02 51°9.582 2°37.3 21.160065 0.002345 0.018144  
2001-12-04 13:58:02 51°9.687 2°37.683 21.109016 0.002345 0.018144  
2001-12-04 13:59:02 51°9.792 2°38.061 21.126899 0.002345 0.018145  
2001-12-04 14:00:02 51°9.902 2°38.439 21.193295 0.002345 0.018145  
2001-12-04 14:01:02 51°10.006 2°38.821 21.131797 0.002345 0.018145  
2001-12-04 14:02:02 51°10.117 2°39.195 21.132554 0.002345 0.018146  
2001-12-04 14:03:02 51°10.218 2°39.574 21.175229 0.002345 0.018146  
2001-12-04 14:04:02 51°10.322 2°39.95 21.178054 0.002345 0.018146  
2001-12-04 14:05:02 51°10.425 2°40.323 21.151108 0.002345 0.018147  
2001-12-04 14:06:02 51°10.52 2°40.704 21.17503 0.002345 0.018147  
2001-12-04 14:07:02 51°10.612 2°41.086 21.200575 0.002345 0.018147  
2001-12-04 14:08:02 51°10.709 2°41.468 21.146131 0.002345 0.018148  
2001-12-04 14:09:02 51°10.803 2°41.848 21.162015 0.002444 0.018651  
2001-12-04 14:10:02 51°10.937 2°42.136 21.144459 0.002345 0.018148  
2001-12-04 14:11:02 51°11.079 2°41.976 21.15899 0.002345 0.018149  
2001-12-04 14:12:02 51°11.161 2°41.728 21.158433 0.002345 0.018149  
2001-12-04 14:13:02 51°11.243 2°41.49 21.2034 0.002444 0.018651  
2001-12-04 14:14:02 51°11.393 2°41.405 21.167309 0.002444 0.018652  
2001-12-04 14:15:02 51°11.446 2°41.745 21.140955 0.002345 0.018149  
2001-12-04 14:16:02 51°11.394 2°42.127 20.943591 0.002345 0.018148  
2001-12-04 14:17:02 51°11.313 2°42.475 21.098459 0.002345 0.01815  
2001-12-04 14:18:02 51°11.21 2°42.735 20.847301 0.002345 0.018149  
2001-12-04 14:19:02 51°11.126 2°43.017 20.782141 0.002444 0.018651  
2001-12-04 14:20:02 51°11.133 2°43.395 20.93273 0.002345 0.018148  
2001-12-04 14:21:02 51°11.189 2°43.794 20.978119 0.002345 0.018148  
2001-12-04 14:22:02 51°11.25 2°44.183 20.902174 0.002345 0.018148  
2001-12-04 14:23:02 51°11.322 2°44.573 20.945108 0.002345 0.018148  
2001-12-04 14:24:02 51°11.384 2°44.966 20.974089 0.002345 0.018148  
2001-12-04 14:25:02 51°11.464 2°45.342 20.957644 0.002444 0.01865  
2001-12-04 14:26:02 51°11.576 2°45.701 20.924782 0.002444 0.01865  
2001-12-04 14:27:02 51°11.669 2°46.077 20.94375 0.002444 0.018651  
2001-12-04 14:28:02 51°11.777 2°46.443 20.976603 0.002444 0.018651  
2001-12-04 14:29:02 51°11.875 2°46.812 20.978838 0.002444 0.018651  
2001-12-04 14:30:02 51°11.998 2°47.158 20.928896 0.002444 0.018651  
2001-12-04 14:31:02 51°12.123 2°47.511 21.003496 0.002444 0.018652  
2001-12-04 14:32:02 51°12.241 2°47.871 21.010517 0.002444 0.018652  
2001-12-04 14:33:02 51°12.361 2°48.234 21.04302 0.002444 0.018652  
2001-12-04 14:34:02 51°12.489 2°48.584 20.977201 0.002444 0.018651  
2001-12-04 14:35:03 51°12.603 2°48.949 21.05502 0.002444 0.018652  
2001-12-04 14:36:02 51°12.721 2°49.297 20.946944 0.002444 0.018651  
2001-12-04 14:37:02 51°12.844 2°49.655 20.963911 0.002444 0.018652  
2001-12-04 14:38:02 51°12.966 2°50.014 20.922466 0.002444 0.018651  
2001-12-04 14:39:02 51°13.093 2°50.369 21.027548 0.002444 0.018652  
2001-12-04 14:40:02 51°13.212 2°50.727 20.985023 0.002444 0.018653  
2001-12-04 14:41:02 51°13.324 2°51.095 20.942233 0.002444 0.018653  
2001-12-04 14:42:03 51°13.433 2°51.466 21.406233 0.002444 0.018653  
2001-12-04 14:43:02 51°13.545 2°51.825 21.305524 0.002444 0.018652  
2001-12-04 14:44:02 51°13.662 2°52.184 20.754082 0.002444 0.018651  
2001-12-04 14:45:02 51°13.778 2°52.537 21.345872 0.002444 0.018651  
2001-12-04 14:46:02 51°13.886 2°52.898 21.58305 0.002444 0.018651  
2001-12-04 14:47:02 51°14.01 2°53.242 21.865371 0.002444 0.018651  
2001-12-04 14:48:02 51°14.139 2°53.595 21.741744 0.002444 0.018652  
2001-12-04 14:49:02 51°14.274 2°53.933 21.627196 0.002444 0.018652  
2001-12-04 14:50:02 51°14.365 2°54.299 21.725752 0.002444 0.018652  
2001-12-04 14:51:02 51°14.369 2°54.664 21.656018 0.002444 0.018652  
2001-12-04 14:52:02 51°14.359 2°55.018 21.544895 0.002444 0.018652  
2001-12-04 14:53:02 51°14.263 2°55.269 22.22066 0.002444 0.018652  
2001-12-04 14:54:02 51°14.131 2°55.412 21.773835 0.002444 0.018652  
2001-12-04 14:55:02 51°14.003 2°55.496 21.726424 0.002444 0.018653  
2001-12-04 14:56:02 51°13.862 2°55.599 21.773204 0.002444 0.018652  
2001-12-04 14:57:02 51°13.772 2°55.701 21.823424 0.002444 0.018652  
2001-12-04 14:58:02 51°13.731 2°55.784 21.617744 0.002444 0.018652  
2001-12-04 14:59:02 51°13.7 2°55.845 22.137078 0.002444 0.018652  
2001-12-04 15:00:02 51°13.686 2°55.903 21.745416 0.002444 0.018652